OIFK  Kashan  Airport

Iran

Add Bookmark
ICAO OIFK
Type Airport
Status Operational
Latitude
33° 53' 43" N
33.895302
Longitude
51° 34' 37" E
51.577000
Local (GMT +4.5 ) UTC
Aug 24, 2016 11:10 am Aug 24, 2016 06:40
Sunrise-Sunset Local UTC
Begin Civil Twilight 06:05 am 01:35
Sunrise 06:31 am 02:01
Sunset 07:40 pm 15:10
End Civil Twilight 08:06 pm 15:36
VFR
VFR
MVFR
MVFR
IFR
IFR
LIFR
LIFR
Unknown
Unavailable

Current Weather

METAR Observed VFR
OIFK 240500Z 03004KT CAVOK 25/01 Q1015 Wed, Aug 24, 2016 @ 05:00 UTC
(1 Hour, 40 Minutes ago)
Visual Flight Rules
Wind Visibility Conditions
030° at 4 knots (7 kph) 10 km or more
  • No significant weather
Temperatures Readings Precipitation
Current Temp
25°C
77°F
Dewpoint
1°C
34°F
Humidity 21%
Altimeter 29.97" Hg
Sea Level Pressure 1,015 mb
Field Elevation
982 m
3,222 ft
None Recorded
-
-

CheckWX.com is intended as a tool to help pilots better visualize weather data. It is not intended as a substitute for an official weather briefing obtained from a Flight Service Station. CheckWX.com does not meet the FAA requirements for an official pre-flight weather briefing. Therefore, it's important that pilots still call and obtain an official FSS pre-flight weather briefing.

© 2007-2016 CheckWX.com
06:40:21 UTC